Decoded Metar for DABT (BATNA in ALGERIA) (IATA:N/A) | Meteo·Mobile Aviation Weather
aviador You're here:

DABT Decoded Metar

BATNA in ALGERIA
Report Time2018-12-16 14:00:00
UTC Time2018-12-16 14:46:23
Flight Rules vfr VFR
WindCalm
Visibility9999 m
Phenomena:N/A
Clouds:N/A
Expected CloudBase > 4,000 ft AGL from Temp-Dew spread
CeilingNone
Temp16°C (ISA +8)
Dew Point06°C (52% RH)
AAT15.1°C
QNH1023 hPa
Density Alt4,170 ft
Elevation3,451 ft
Report Wrong Elevation
Raw Report
DABT 161400Z 00000KT CAVOK 16/06 Q1023=

Extra information for DABT:More info

Metar Taf Metar & Taf Last 4 Metars F.Rules Stats Wind Profile Meteogram Temp Stats Airport Information Weather charts Add Link Nearby VenuesMetar ALERT Operation Metar Decoded Social comments